Willmar, MN

4:42 PM CST on December 06, 2016 (GMT -0600)
APRSWXNET | | Change Station
Active Advisory: Wind Advisory

Elev 1181 ft 45.15 °N, 95.01 °W | Updated 29 minutes ago

Light Snow
Light Snow
19 °F
Feels Like 5 °F
N
14
Wind Variable Wind from NNW
Gusts 25.0 mph

Today
High -- | Low -- °F
--% Chance of Precip.
Yesterday
High -- | Low -- °F
Precip. -- in
Pressure 29.74 in
Visibility 10.0 miles
Clouds Mostly Cloudy 2200 ft
Overcast 2900 ft
Windchill 5 °F
Dew Point 14 °F
Humidity 81%
Rainfall in
Snow Depth Not available.
7:44 AM 4:38 PM
Waxing Crescent, 46% visible
METAR KBDH 062235Z AUTO 26020G30KT 10SM -SN BKN022 OVC029 M06/M09 A2974 RMK AO2
Pressure 29.74 in
Visibility 10.0 miles
Clouds Mostly Cloudy 2200 ft
Overcast 2900 ft
Windchill 5 °F
Dew Point 14 °F
Humidity 81%
Rainfall in
Snow Depth Not available.
7:44 AM 4:38 PM
Waxing Crescent, 46% visible
METAR KBDH 062235Z AUTO 26020G30KT 10SM -SN BKN022 OVC029 M06/M09 A2974 RMK AO2

10-Day Weather Forecast

Almanac

Astronomy

Dec. 06, 2016 Rise Set
Actual Time
Civil Twilight
Nautical Twilight
Astronomical Twilight
Moon
Length of Visible Light
Length of Day
Tomorrow will be .
, % of the Moon is Illuminated

Today's Extremes

State Highs State Lows

Community

WunderPhotos

Upload Photos

1,956,042 photos uploaded!

WunderBlog® & News

Nearby

Air Quality

  Air Quality AQ Index Pollutant
Not available.

Snow Depth

Station Depth Elevation

Earthquake Activity

City Distance Mag. Time & Date
Minimum magnitude displayed is 2.5.

Coastal Water Temperatures

Place Temperature

Stations

Nearby Weather Stations

Station Location Temp. Windchill Dew Point Humidity Wind Precip. Elev Updated Type
                   

Watches & Warnings

Wind Advisory
Issued: 9:39 AM CST Dec. 6, 2016 – National Weather Service

... Wind Advisory remains in effect until 9 PM CST this evening...

* timing... through 9 PM this evening.

* Winds... west 25 to 35 mph with gusts to 45 mph.

* Impacts... drivers of light weight or high profile vehicles may
experience control problems. Loose objects like garbage cans
and lawn furniture are likely to blow around. Weakened or
broken branches on trees may come down.

Precautionary/preparedness actions...

A Wind Advisory means that winds of 35 mph are expected. Winds
this strong can make driving difficult... especially for high
profile vehicles. Use extra caution.